createdAt,value
2022-12-10T00:01:35.104Z,98609.78
2022-12-10T00:04:36.615Z,98617.59
2022-12-10T00:07:38.075Z,98612.47
2022-12-10T00:10:42.256Z,98619.09
2022-12-10T00:13:44.516Z,98609.25
2022-12-10T00:16:46.068Z,98605.03
2022-12-10T00:19:47.705Z,98615.38
2022-12-10T00:22:49.183Z,98602.94
2022-12-10T00:25:51.098Z,98611.59
2022-12-10T00:28:53.867Z,98618.94
2022-12-10T00:31:55.345Z,98630.44
2022-12-10T00:34:56.820Z,98625.88
2022-12-10T00:37:58.247Z,98627.50
2022-12-10T00:41:00.368Z,98628.13
2022-12-10T00:44:01.909Z,98624.03
2022-12-10T00:47:03.995Z,98632.38
2022-12-10T00:50:06.064Z,98644.53
2022-12-10T00:53:07.674Z,98644.00
2022-12-10T00:56:10.633Z,98640.53
2022-12-10T00:59:12.179Z,98625.53
2022-12-10T01:02:13.744Z,98625.22
2022-12-10T01:05:17.561Z,98619.34
2022-12-10T01:08:19.112Z,98619.53
2022-12-10T01:11:22.637Z,98618.06
2022-12-10T01:14:29.915Z,98615.13
2022-12-10T01:17:31.388Z,98611.13
2022-12-10T01:20:36.817Z,98611.41
2022-12-10T01:23:40.483Z,98612.13
2022-12-10T01:26:42.014Z,98615.19
2022-12-10T01:29:43.490Z,98611.31
2022-12-10T01:32:44.948Z,98614.16
2022-12-10T01:35:46.611Z,98604.34
2022-12-10T01:38:50.446Z,98618.88
2022-12-10T01:41:55.427Z,98608.44
2022-12-10T01:45:00.865Z,98622.22
2022-12-10T01:48:07.798Z,98625.81
2022-12-10T01:51:11.644Z,98629.91
2022-12-10T01:54:18.522Z,98646.91
2022-12-10T01:57:24.689Z,98640.59
2022-12-10T02:00:26.263Z,98634.94
2022-12-10T02:03:53.744Z,98639.88
2022-12-10T02:07:02.632Z,98643.94
2022-12-10T02:10:41.954Z,98648.94
2022-12-10T02:13:50.978Z,98664.91
2022-12-10T02:17:17.823Z,98663.31
2022-12-10T02:20:48.348Z,98657.00
2022-12-10T02:23:56.140Z,98658.63
2022-12-10T02:27:16.776Z,98663.66
2022-12-10T02:30:19.019Z,98659.06
2022-12-10T02:33:23.642Z,98660.19
2022-12-10T02:36:29.792Z,98654.75
2022-12-10T02:39:39.106Z,98661.44
2022-12-10T02:42:45.591Z,98663.91
2022-12-10T02:45:47.869Z,98665.88
2022-12-10T02:48:51.050Z,98670.72
2022-12-10T02:51:54.014Z,98657.94
2022-12-10T02:54:56.822Z,98669.16
2022-12-10T02:58:21.291Z,98667.34
2022-12-10T03:01:40.617Z,98678.50
2022-12-10T03:05:08.617Z,98673.84
2022-12-10T03:08:22.153Z,98673.50
2022-12-10T03:11:24.370Z,98669.03
2022-12-10T03:14:31.250Z,98672.50
2022-12-10T03:17:33.442Z,98667.22
2022-12-10T03:20:39.590Z,98662.09
2022-12-10T03:23:46.030Z,98663.41
2022-12-10T03:26:49.555Z,98669.06
2022-12-10T03:29:57.357Z,98664.00
2022-12-10T03:32:58.923Z,98651.84
2022-12-10T03:36:01.047Z,98665.78
2022-12-10T03:39:03.108Z,98670.25
2022-12-10T03:42:06.601Z,98673.91
2022-12-10T03:45:08.807Z,98664.09
2022-12-10T03:48:10.283Z,98661.03
2022-12-10T03:51:11.844Z,98665.06
2022-12-10T03:54:13.293Z,98662.00
2022-12-10T03:57:15.156Z,98658.25
2022-12-10T04:00:16.867Z,98667.47
2022-12-10T04:03:18.321Z,98672.25
2022-12-10T04:06:20.093Z,98661.94
2022-12-10T04:09:21.652Z,98669.91
2022-12-10T04:12:23.117Z,98674.66
2022-12-10T04:15:43.223Z,98667.34
2022-12-10T04:18:44.657Z,98656.13
2022-12-10T04:22:06.366Z,98655.94
2022-12-10T04:25:29.910Z,98640.84
2022-12-10T04:28:31.415Z,98646.50
2022-12-10T04:31:32.828Z,98642.00
2022-12-10T04:34:34.534Z,98645.56
2022-12-10T04:37:36.032Z,98651.19
2022-12-10T04:40:37.466Z,98651.66
2022-12-10T04:43:38.906Z,98648.94
2022-12-10T04:46:40.504Z,98664.63
2022-12-10T04:49:42.223Z,98654.72
2022-12-10T04:52:44.707Z,98657.31
2022-12-10T04:55:46.138Z,98656.34
2022-12-10T04:58:47.675Z,98655.59
2022-12-10T05:01:49.706Z,98654.88
2022-12-10T05:04:51.267Z,98661.41
2022-12-10T05:07:52.708Z,98667.50
2022-12-10T05:10:54.143Z,98666.56
2022-12-10T05:13:56.781Z,98666.63
2022-12-10T05:16:58.285Z,98665.75
2022-12-10T05:19:59.711Z,98671.31
2022-12-10T05:23:19.612Z,98676.59
2022-12-10T05:26:23.765Z,98678.25
2022-12-10T05:29:28.057Z,98681.44
2022-12-10T05:32:29.515Z,98679.78
2022-12-10T05:35:31.182Z,98685.38
2022-12-10T05:38:34.146Z,98683.25
2022-12-10T05:41:38.348Z,98693.13
2022-12-10T05:44:39.855Z,98681.53
2022-12-10T05:47:41.415Z,98693.38
2022-12-10T05:50:43.549Z,98690.50
2022-12-10T05:53:45.296Z,98693.22
2022-12-10T05:56:46.754Z,98699.44
2022-12-10T05:59:48.174Z,98710.88
2022-12-10T06:02:52.718Z,98709.75
2022-12-10T06:05:54.917Z,98709.78
2022-12-10T06:08:56.989Z,98716.13
2022-12-10T06:11:58.485Z,98714.09
2022-12-10T06:14:59.942Z,98715.34
2022-12-10T06:18:01.460Z,98718.66
2022-12-10T06:21:07.969Z,98723.09
2022-12-10T06:24:09.444Z,98731.09
2022-12-10T06:27:10.992Z,98734.59
2022-12-10T06:30:12.632Z,98734.88
2022-12-10T06:33:14.051Z,98741.94
2022-12-10T06:36:17.696Z,98754.84
2022-12-10T06:39:19.097Z,98745.63
2022-12-10T06:42:21.723Z,98749.84
2022-12-10T06:45:23.367Z,98752.94
2022-12-10T06:48:24.995Z,98766.09
2022-12-10T06:51:26.601Z,98764.09
2022-12-10T06:54:28.793Z,98762.56
2022-12-10T06:57:30.368Z,98771.00
2022-12-10T07:00:32.090Z,98772.19
2022-12-10T07:03:34.032Z,98771.34
2022-12-10T07:06:35.580Z,98776.75
2022-12-10T07:09:37.156Z,98774.03
2022-12-10T07:12:38.906Z,98787.66
2022-12-10T07:15:40.370Z,98791.19
2022-12-10T07:18:46.183Z,98787.09
2022-12-10T07:21:52.067Z,98788.75
2022-12-10T07:24:53.624Z,98800.84
2022-12-10T07:27:57.856Z,98801.66
2022-12-10T07:31:04.330Z,98801.31
2022-12-10T07:34:05.944Z,98809.75
2022-12-10T07:37:07.822Z,98806.06
2022-12-10T07:40:12.022Z,98806.81
2022-12-10T07:43:13.521Z,98804.09
2022-12-10T07:46:22.020Z,98818.38
2022-12-10T07:49:23.759Z,98819.53
2022-12-10T07:52:25.180Z,98816.31
2022-12-10T07:55:26.623Z,98817.25
2022-12-10T07:58:28.515Z,98816.09
2022-12-10T08:01:29.931Z,98814.56
2022-12-10T08:04:31.433Z,98815.72
2022-12-10T08:07:34.061Z,98830.97
2022-12-10T08:10:39.844Z,98830.25
2022-12-10T08:13:41.997Z,98841.53
2022-12-10T08:16:43.551Z,98838.84
2022-12-10T08:19:45.001Z,98847.97
2022-12-10T08:22:46.568Z,98849.25
2022-12-10T08:25:47.976Z,98850.91
2022-12-10T08:28:50.346Z,98846.00
2022-12-10T08:31:51.843Z,98846.59
2022-12-10T08:34:53.325Z,98858.78
2022-12-10T08:37:54.730Z,98850.03
2022-12-10T08:40:56.322Z,98851.75
2022-12-10T08:43:57.745Z,98854.09
2022-12-10T08:46:59.184Z,98856.69
2022-12-10T08:50:00.807Z,98862.09
2022-12-10T08:53:02.419Z,98866.53
2022-12-10T08:56:04.126Z,98868.72
2022-12-10T08:59:06.018Z,98866.66
2022-12-10T09:02:14.033Z,98867.94
2022-12-10T09:05:15.834Z,98880.34
2022-12-10T09:08:17.357Z,98878.84
2022-12-10T09:11:30.484Z,98883.72
2022-12-10T09:14:31.974Z,98886.03
2022-12-10T09:17:35.783Z,98891.41
2022-12-10T09:20:37.936Z,98895.00
2022-12-10T09:23:40.688Z,98896.22
2022-12-10T09:26:42.090Z,98897.34
2022-12-10T09:29:43.556Z,98891.38
2022-12-10T09:32:45.644Z,98901.53
2022-12-10T09:35:47.102Z,98904.75
2022-12-10T09:38:49.568Z,98909.25
2022-12-10T09:41:50.854Z,98913.25
2022-12-10T09:45:21.433Z,98913.47
2022-12-10T09:48:33.241Z,98914.06
2022-12-10T09:51:37.868Z,98914.38
2022-12-10T09:54:45.121Z,98917.75
2022-12-10T09:57:50.657Z,98917.13
2022-12-10T10:01:07.149Z,98910.66
2022-12-10T10:04:10.033Z,98913.00
2022-12-10T10:07:21.635Z,98907.13
2022-12-10T10:10:31.752Z,98913.72
2022-12-10T10:13:59.441Z,98917.75
2022-12-10T10:17:04.832Z,98910.94
2022-12-10T10:20:06.868Z,98915.84
2022-12-10T10:23:13.432Z,98919.38
2022-12-10T10:26:14.946Z,98917.00
2022-12-10T10:29:19.816Z,98916.66
2022-12-10T10:32:50.151Z,98916.69
2022-12-10T10:35:58.898Z,98921.47
2022-12-10T10:39:28.405Z,98921.03
2022-12-10T10:42:41.881Z,98925.66
2022-12-10T10:45:49.363Z,98928.03
2022-12-10T10:48:51.815Z,98932.66
2022-12-10T10:51:55.168Z,98931.38
2022-12-10T10:54:56.890Z,98931.44
2022-12-10T10:57:58.858Z,98935.22
2022-12-10T11:01:08.726Z,98929.94
2022-12-10T11:04:10.492Z,98925.22
2022-12-10T11:07:21.616Z,98922.06
2022-12-10T11:10:25.926Z,98925.13
2022-12-10T11:13:29.902Z,98924.19
2022-12-10T11:16:31.369Z,98926.94
2022-12-10T11:19:32.861Z,98940.38
2022-12-10T11:22:34.825Z,98941.09
2022-12-10T11:25:51.063Z,98943.06
2022-12-10T11:29:21.870Z,98943.78
2022-12-10T11:32:35.574Z,98942.66
2022-12-10T11:35:55.598Z,98945.84
2022-12-10T11:39:15.272Z,98948.19
2022-12-10T11:42:28.724Z,98958.38
2022-12-10T11:45:42.397Z,98959.03
2022-12-10T11:48:52.876Z,98956.56
2022-12-10T11:52:07.097Z,98961.25
2022-12-10T11:55:36.428Z,98958.88
2022-12-10T11:58:53.003Z,98968.63
2022-12-10T12:02:20.826Z,98963.91
2022-12-10T12:05:28.691Z,98967.22
2022-12-10T12:08:50.791Z,98964.38
2022-12-10T12:11:58.002Z,98968.84
2022-12-10T12:15:06.400Z,98969.81
2022-12-10T12:18:26.957Z,98967.47
2022-12-10T12:21:28.457Z,98979.88
2022-12-10T12:24:36.965Z,98972.63
2022-12-10T12:27:47.871Z,98976.66
2022-12-10T12:31:00.531Z,98978.06
2022-12-10T12:34:16.703Z,98984.91
2022-12-10T12:37:23.219Z,98993.06
2022-12-10T12:40:40.976Z,98990.81
2022-12-10T12:43:55.960Z,98993.84
2022-12-10T12:47:03.154Z,99004.97
2022-12-10T12:50:12.655Z,99001.16
2022-12-10T12:53:17.056Z,99003.53
2022-12-10T12:56:38.216Z,99004.81
2022-12-10T13:00:08.274Z,99007.63
2022-12-10T13:03:25.367Z,99010.56
2022-12-10T13:06:33.334Z,99016.97
2022-12-10T13:09:43.502Z,99011.25
2022-12-10T13:13:08.330Z,99024.81
2022-12-10T13:16:35.868Z,99029.97
2022-12-10T13:19:37.519Z,99024.09
2022-12-10T13:22:38.907Z,99032.41
2022-12-10T13:25:57.898Z,99040.16
2022-12-10T13:29:24.546Z,99042.47
2022-12-10T13:32:32.676Z,99045.31
2022-12-10T13:35:44.528Z,99039.81
2022-12-10T13:39:19.174Z,99040.97
2022-12-10T13:42:47.657Z,99051.69
2022-12-10T13:45:49.132Z,99055.63
2022-12-10T13:48:55.702Z,99058.72
2022-12-10T13:52:07.555Z,99064.06
2022-12-10T13:55:20.867Z,99064.38
2022-12-10T13:58:34.526Z,99064.78
2022-12-10T14:01:43.647Z,99075.25
2022-12-10T14:04:51.122Z,99079.84
2022-12-10T14:07:57.188Z,99084.91
2022-12-10T14:11:00.510Z,99091.69
2022-12-10T14:14:03.141Z,99093.66
2022-12-10T14:17:22.561Z,99098.28
2022-12-10T14:20:26.065Z,99101.41
2022-12-10T14:23:39.867Z,99097.84
2022-12-10T14:26:45.786Z,99100.16
2022-12-10T14:30:00.029Z,99107.31
2022-12-10T14:33:01.512Z,99122.16
2022-12-10T14:36:03.536Z,99119.41
2022-12-10T14:39:05.279Z,99117.44
2022-12-10T14:42:07.933Z,99111.66
2022-12-10T14:45:15.376Z,99124.22
2022-12-10T14:48:17.425Z,99121.19
2022-12-10T14:51:24.589Z,99130.81
2022-12-10T14:54:33.898Z,99127.97
2022-12-10T14:57:41.029Z,99139.19
2022-12-10T15:00:42.552Z,99142.06
2022-12-10T15:03:48.779Z,99142.88
2022-12-10T15:06:50.313Z,99144.97
2022-12-10T15:09:54.690Z,99159.03
2022-12-10T15:12:57.063Z,99154.94
2022-12-10T15:15:58.724Z,99154.34
2022-12-10T15:19:29.409Z,99152.91
2022-12-10T15:22:34.474Z,99155.94
2022-12-10T15:25:46.116Z,99145.97
2022-12-10T15:28:50.155Z,99152.28
2022-12-10T15:31:58.272Z,99154.06
2022-12-10T15:35:04.831Z,99155.41
2022-12-10T15:38:06.297Z,99160.88
2022-12-10T15:41:35.261Z,99157.81
2022-12-10T15:44:46.769Z,99159.44
2022-12-10T15:47:48.267Z,99160.66
2022-12-10T15:50:50.827Z,99157.34
2022-12-10T15:53:52.345Z,99168.00
2022-12-10T15:56:53.897Z,99170.91
2022-12-10T15:59:58.593Z,99168.88
2022-12-10T16:03:06.335Z,99183.75
2022-12-10T16:06:07.767Z,99179.88
2022-12-10T16:09:10.571Z,99187.81
2022-12-10T16:12:14.136Z,99188.44
2022-12-10T16:15:21.983Z,99194.97
2022-12-10T16:18:23.415Z,99191.13
2022-12-10T16:21:24.896Z,99195.16
2022-12-10T16:24:26.339Z,99193.50
2022-12-10T16:27:28.278Z,99191.41
2022-12-10T16:30:38.842Z,99193.75
2022-12-10T16:33:42.811Z,99193.19
2022-12-10T16:36:44.235Z,99195.75
2022-12-10T16:39:51.406Z,99199.97
2022-12-10T16:42:56.031Z,99201.19
2022-12-10T16:45:57.896Z,99195.66
2022-12-10T16:48:59.456Z,99200.16
2022-12-10T16:52:00.861Z,99209.13
2022-12-10T16:55:03.141Z,99201.63
2022-12-10T16:58:10.509Z,99210.91
2022-12-10T17:01:16.798Z,99207.31
2022-12-10T17:04:18.250Z,99208.88
2022-12-10T17:07:20.862Z,99223.03
2022-12-10T17:10:47.995Z,99219.13
2022-12-10T17:13:49.462Z,99228.13
2022-12-10T17:16:52.761Z,99231.00
2022-12-10T17:19:54.226Z,99230.56
2022-12-10T17:22:55.997Z,99235.31
2022-12-10T17:25:58.296Z,99229.56
2022-12-10T17:29:10.017Z,99228.13
2022-12-10T17:32:14.949Z,99229.06
2022-12-10T17:35:16.905Z,99236.25
2022-12-10T17:38:22.001Z,99230.41
2022-12-10T17:41:23.433Z,99241.94
2022-12-10T17:44:24.916Z,99241.97
2022-12-10T17:47:26.376Z,99243.38
2022-12-10T17:50:34.683Z,99241.22
2022-12-10T17:53:36.404Z,99246.50
2022-12-10T17:56:38.081Z,99249.50
2022-12-10T17:59:43.379Z,99249.56
2022-12-10T18:02:44.859Z,99249.13
2022-12-10T18:05:46.805Z,99252.16
2022-12-10T18:08:49.688Z,99246.63
2022-12-10T18:11:51.741Z,99254.28
2022-12-10T18:14:53.127Z,99250.69
2022-12-10T18:17:54.652Z,99251.13
2022-12-10T18:20:56.117Z,99260.06
2022-12-10T18:23:57.656Z,99262.50
2022-12-10T18:26:59.249Z,99271.63
2022-12-10T18:30:00.976Z,99278.94
2022-12-10T18:33:02.423Z,99286.16
2022-12-10T18:36:04.504Z,99285.41
2022-12-10T18:39:21.863Z,99278.16
2022-12-10T18:42:23.291Z,99287.47
2022-12-10T18:45:24.777Z,99285.22
2022-12-10T18:48:26.249Z,99277.56
2022-12-10T18:51:27.942Z,99293.28
2022-12-10T18:54:29.355Z,99287.25
2022-12-10T18:57:34.168Z,99293.00
2022-12-10T19:00:37.854Z,99296.00
2022-12-10T19:03:43.465Z,99299.63
2022-12-10T19:06:49.575Z,99295.47
2022-12-10T19:09:52.600Z,99299.63
2022-12-10T19:12:54.054Z,99304.03
2022-12-10T19:15:55.631Z,99303.31
2022-12-10T19:19:02.075Z,99304.03
2022-12-10T19:22:04.069Z,99300.59
2022-12-10T19:25:06.019Z,99292.28
2022-12-10T19:28:07.636Z,99298.97
2022-12-10T19:31:13.072Z,99288.25
2022-12-10T19:34:16.438Z,99295.00
2022-12-10T19:37:17.949Z,99287.78
2022-12-10T19:40:23.542Z,99291.25
2022-12-10T19:43:24.960Z,99282.22
2022-12-10T19:46:27.500Z,99288.19
2022-12-10T19:49:29.063Z,99288.56
2022-12-10T19:52:30.490Z,99285.44
2022-12-10T19:55:32.107Z,99294.94
2022-12-10T19:58:33.532Z,99291.56
2022-12-10T20:01:35.046Z,99295.19
2022-12-10T20:04:36.547Z,99291.19
2022-12-10T20:07:38.081Z,99295.22
2022-12-10T20:10:39.574Z,99293.78
2022-12-10T20:13:43.110Z,99292.03
2022-12-10T20:16:46.383Z,99292.59
2022-12-10T20:19:48.165Z,99290.13
2022-12-10T20:22:50.411Z,99295.50
2022-12-10T20:25:51.945Z,99293.84
2022-12-10T20:28:53.423Z,99287.84
2022-12-10T20:31:56.597Z,99286.00
2022-12-10T20:34:58.212Z,99288.44
2022-12-10T20:37:59.723Z,99292.03
2022-12-10T20:41:01.191Z,99293.72
2022-12-10T20:44:02.650Z,99288.97
2022-12-10T20:47:09.670Z,99293.75
2022-12-10T20:50:15.780Z,99288.34
2022-12-10T20:53:17.401Z,99288.25
2022-12-10T20:56:22.106Z,99293.09
2022-12-10T20:59:23.977Z,99285.38
2022-12-10T21:02:25.592Z,99285.69
2022-12-10T21:05:26.997Z,99283.22
2022-12-10T21:08:28.829Z,99284.25
2022-12-10T21:11:30.355Z,99287.75
2022-12-10T21:17:53.338Z,99291.38
2022-12-10T21:20:55.805Z,99295.22
2022-12-10T21:23:58.183Z,99305.03
2022-12-10T21:26:59.613Z,99305.22
2022-12-10T21:30:01.060Z,99297.88
2022-12-10T21:33:02.681Z,99293.88
2022-12-10T21:36:04.393Z,99296.97
2022-12-10T21:39:05.922Z,99287.47
2022-12-10T21:42:26.277Z,99288.31
2022-12-10T21:45:31.531Z,99288.94
2022-12-10T21:48:32.987Z,99285.81
2022-12-10T21:51:39.545Z,99284.34
2022-12-10T21:54:41.896Z,99288.81
2022-12-10T21:57:43.345Z,99277.25
2022-12-10T22:00:45.121Z,99286.63
2022-12-10T22:03:47.149Z,99292.19
2022-12-10T22:06:48.576Z,99289.03
2022-12-10T22:09:50.795Z,99288.31
2022-12-10T22:12:52.346Z,99287.25
2022-12-10T22:15:53.866Z,99292.00
2022-12-10T22:18:55.417Z,99299.91
2022-12-10T22:21:56.841Z,99303.09
2022-12-10T22:24:58.267Z,99304.41
2022-12-10T22:27:59.723Z,99297.41
2022-12-10T22:31:01.219Z,99301.09
2022-12-10T22:34:02.849Z,99299.03
2022-12-10T22:37:04.253Z,99305.81
2022-12-10T22:40:07.295Z,99297.16
2022-12-10T22:43:41.094Z,99290.38
2022-12-10T22:46:30.681Z,99290.38
2022-12-10T22:49:37.195Z,99290.56
2022-12-10T22:52:40.362Z,99276.75
2022-12-10T22:55:42.062Z,99281.19
2022-12-10T22:58:44.300Z,99274.78
2022-12-10T23:01:45.750Z,99277.56
2022-12-10T23:04:53.339Z,99278.41
2022-12-10T23:07:54.805Z,99272.09
2022-12-10T23:10:56.508Z,99273.09
2022-12-10T23:13:57.981Z,99269.69
2022-12-10T23:16:59.591Z,99282.13
2022-12-10T23:20:01.019Z,99289.31
2022-12-10T23:23:02.512Z,99282.31
2022-12-10T23:26:03.923Z,99289.22
2022-12-10T23:29:05.772Z,99290.34
2022-12-10T23:32:07.227Z,99292.44
2022-12-10T23:35:09.565Z,99290.38
2022-12-10T23:38:11.468Z,99283.75
2022-12-10T23:41:12.889Z,99282.84
2022-12-10T23:44:14.314Z,99272.19
2022-12-10T23:47:15.703Z,99268.97
2022-12-10T23:50:17.286Z,99265.91
2022-12-10T23:53:19.332Z,99263.75
2022-12-10T23:56:21.377Z,99253.63
2022-12-10T23:59:22.805Z,99247.66
